Terminal Aerodrome Forecast
Issued by NWS St Louis, MO

Home | Current Version | Previous Version | Text Only | Print | Product List | Glossary On
Versions: 1 2 3 4 5 6 7 8 9 10 11 12 13 14 15 16 17 18 19 20 21 22 23 24 25 26
198
FTUS43 KLSX 231438 AAA
TAFSTL
TAF AMD
KSTL 231438Z 2315/2418 12012KT P6SM -SHRA VCTS OVC040CB
      TEMPO 2315/2316 5SM -SHRA OVC040
     FM231700 13008KT P6SM OVC040
     FM240300 16014KT P6SM SCT250 WS014/20040KT
     FM241400 18010G18KT P6SM BKN080=

USA.gov is the U.S. government's official web portal to all federal, state and local government web resources and services.